KNZY/NZY METAR and TAF weather

Enter ICAO airport designator
Station Type Date Time Source
KNZY METAR 2020/07/14 22:52 UTC NOAA

KNZY 142252Z 27011KT 10SM FEW020 SCT200 23/15 A2995 RMK AO2 SLP142 T02280150


Station Type Date Time Source
KNZY Decoded METAR 2020/07/14 22:52 UTC NOAA

NAS NORTH ISLAND, SAN DIEGO, CA, United States (KNZY) 32-42N 117-13W 14M
Jul 14, 2020 - 06:52 PM EDT / 2020.07.14 2252 UTC
Wind: from the W (270 degrees) at 13 MPH (11 KT):0
Visibility: 10 mile(s):0
Sky conditions: partly cloudy
Temperature: 73.0 F (22.8 C)
Dew Point: 59.0 F (15.0 C)
Relative Humidity: 61%
Pressure (altimeter): 29.95 in. Hg (1014 hPa)
ob: KNZY 142252Z 27011KT 10SM FEW020 SCT200 23/15 A2995 RMK AO2 SLP142 T02280150
cycle: 23

Station Type Date Time Source
KNZY TAF 2020/07/14 23:54 UTC NOAA

TAF KNZY 1423/1523 27009KT 9999 SCT018 SCT200 QNH2990INS
TEMPO 1423/1503 VRB06KT BKN017 BKN200
FM150300 VRB06KT 9999 BKN017 BKN200 QNH2992INS
FM151700 23007KT 9999 SCT018 QNH2988INS T18/1513Z T24/1522Z FS30103

Example: see airport list